createdAt,value
2022-11-21T00:01:38.459Z,15.57
2022-11-21T00:04:07.652Z,21.93
2022-11-21T00:06:37.051Z,19.73
2022-11-21T00:09:05.082Z,20.50
2022-11-21T00:11:33.094Z,21.47
2022-11-21T00:14:01.027Z,19.93
2022-11-21T00:16:29.234Z,18.83
2022-11-21T00:18:57.244Z,22.50
2022-11-21T00:21:25.200Z,23.23
2022-11-21T00:23:54.725Z,21.90
2022-11-21T00:26:22.677Z,18.37
2022-11-21T00:28:50.678Z,16.37
2022-11-21T00:31:21.687Z,16.97
2022-11-21T00:33:49.663Z,15.47
2022-11-21T00:36:17.660Z,11.57
2022-11-21T00:38:45.779Z,14.27
2022-11-21T00:41:15.196Z,12.13
2022-11-21T00:43:43.206Z,14.27
2022-11-21T00:46:12.719Z,15.17
2022-11-21T00:48:40.658Z,16.17
2022-11-21T00:51:08.537Z,17.00
2022-11-21T00:53:36.418Z,20.07
2022-11-21T00:56:04.325Z,18.53
2022-11-21T00:58:33.816Z,16.27
2022-11-21T01:01:06.404Z,20.47
2022-11-21T01:03:35.168Z,18.87
2022-11-21T01:06:04.071Z,24.00
2022-11-21T01:08:36.004Z,24.33
2022-11-21T01:11:05.354Z,22.97
2022-11-21T01:13:34.879Z,23.53
2022-11-21T01:16:06.627Z,26.20
2022-11-21T01:18:34.675Z,25.43
2022-11-21T01:21:02.937Z,32.50
2022-11-21T01:23:30.767Z,27.23
2022-11-21T01:26:02.700Z,26.17
2022-11-21T01:28:30.796Z,28.83
2022-11-21T01:31:06.183Z,26.27
2022-11-21T01:33:34.497Z,28.67
2022-11-21T01:36:08.688Z,24.20
2022-11-21T01:38:36.669Z,29.37
2022-11-21T01:41:04.779Z,28.43
2022-11-21T01:43:32.808Z,32.50
2022-11-21T01:46:01.246Z,30.70
2022-11-21T01:48:33.744Z,29.00
2022-11-21T01:51:04.351Z,28.67
2022-11-21T01:53:32.423Z,29.27
2022-11-21T01:56:00.536Z,34.70
2022-11-21T01:58:28.672Z,35.03
2022-11-21T02:00:56.680Z,32.43
2022-11-21T02:03:26.079Z,30.03
2022-11-21T02:05:57.449Z,32.57
2022-11-21T02:08:25.517Z,29.80
2022-11-21T02:10:58.247Z,34.30
2022-11-21T02:13:26.581Z,35.43
2022-11-21T02:15:54.601Z,33.33
2022-11-21T02:18:25.539Z,38.57
2022-11-21T02:21:00.174Z,37.83
2022-11-21T02:23:30.435Z,31.70
2022-11-21T02:25:59.905Z,28.57
2022-11-21T02:28:27.987Z,31.23
2022-11-21T02:30:56.036Z,31.00
2022-11-21T02:33:24.332Z,33.93
2022-11-21T02:36:01.653Z,34.83
2022-11-21T02:38:31.934Z,36.77
2022-11-21T02:41:04.954Z,33.03
2022-11-21T02:43:34.406Z,36.63
2022-11-21T02:46:02.248Z,35.03
2022-11-21T02:48:30.222Z,34.80
2022-11-21T02:50:58.122Z,35.30
2022-11-21T02:53:26.131Z,37.43
2022-11-21T02:55:54.043Z,34.37
2022-11-21T02:58:23.803Z,35.40
2022-11-21T03:00:51.850Z,33.37
2022-11-21T03:03:20.036Z,30.70
2022-11-21T03:05:48.349Z,35.47
2022-11-21T03:08:16.315Z,34.87
2022-11-21T03:10:46.078Z,32.33
2022-11-21T03:13:14.142Z,35.07
2022-11-21T03:15:43.517Z,35.40
2022-11-21T03:18:13.412Z,41.80
2022-11-21T03:20:41.438Z,37.10
2022-11-21T03:23:09.383Z,35.87
2022-11-21T03:25:37.258Z,38.70
2022-11-21T03:28:05.464Z,35.50
2022-11-21T03:30:33.508Z,34.70
2022-11-21T03:33:02.854Z,36.03
2022-11-21T03:35:30.779Z,34.77
2022-11-21T03:37:58.678Z,34.83
2022-11-21T03:40:26.575Z,34.87
2022-11-21T03:42:54.534Z,31.03
2022-11-21T03:45:22.494Z,32.20
2022-11-21T03:47:50.415Z,34.67
2022-11-21T03:50:21.060Z,32.13
2022-11-21T03:52:48.987Z,29.43
2022-11-21T03:55:16.977Z,32.27
2022-11-21T03:57:44.952Z,35.70
2022-11-21T04:00:14.425Z,31.37
2022-11-21T04:02:42.453Z,31.70
2022-11-21T04:05:10.782Z,29.77
2022-11-21T04:07:42.403Z,33.57
2022-11-21T04:10:11.295Z,33.03
2022-11-21T04:12:39.397Z,31.40
2022-11-21T04:15:13.152Z,32.90
2022-11-21T04:17:41.659Z,31.90
2022-11-21T04:20:10.623Z,32.33
2022-11-21T04:22:40.006Z,35.87
2022-11-21T04:25:09.105Z,33.60
2022-11-21T04:27:36.970Z,33.60
2022-11-21T04:30:05.597Z,29.30
2022-11-21T04:32:33.625Z,34.97
2022-11-21T04:35:01.616Z,31.30
2022-11-21T04:37:32.240Z,34.23
2022-11-21T04:40:01.865Z,36.20
2022-11-21T04:42:29.736Z,30.23
2022-11-21T04:44:57.768Z,31.37
2022-11-21T04:47:25.800Z,34.70
2022-11-21T04:49:56.723Z,32.30
2022-11-21T04:52:25.075Z,33.00
2022-11-21T04:54:53.183Z,29.43
2022-11-21T04:57:26.116Z,36.10
2022-11-21T04:59:54.098Z,33.00
2022-11-21T05:02:22.324Z,35.47
2022-11-21T05:04:50.479Z,34.80
2022-11-21T05:07:18.712Z,33.53
2022-11-21T05:09:46.910Z,34.10
2022-11-21T05:12:32.384Z,34.67
2022-11-21T05:15:01.775Z,33.63
2022-11-21T05:17:30.099Z,30.87
2022-11-21T05:19:58.086Z,30.63
2022-11-21T05:22:27.946Z,35.43
2022-11-21T05:24:55.792Z,33.70
2022-11-21T05:27:23.657Z,37.23
2022-11-21T05:29:51.360Z,36.87
2022-11-21T05:32:20.555Z,37.20
2022-11-21T05:34:48.494Z,35.47
2022-11-21T05:37:16.435Z,38.57
2022-11-21T05:39:44.279Z,45.57
2022-11-21T05:42:12.102Z,41.20
2022-11-21T05:44:44.702Z,37.97
2022-11-21T05:47:13.090Z,40.07
2022-11-21T05:49:42.425Z,44.40
2022-11-21T05:52:10.489Z,42.83
2022-11-21T05:54:42.385Z,37.67
2022-11-21T05:57:15.207Z,41.07
2022-11-21T05:59:49.177Z,41.93
2022-11-21T06:02:34.610Z,42.60
2022-11-21T06:05:05.312Z,39.10
2022-11-21T06:07:34.566Z,38.63
2022-11-21T06:10:02.581Z,42.20
2022-11-21T06:12:30.552Z,36.60
2022-11-21T06:15:01.598Z,46.60
2022-11-21T06:17:29.640Z,40.03
2022-11-21T06:19:57.518Z,41.07
2022-11-21T06:22:26.825Z,47.77
2022-11-21T06:24:54.615Z,39.87
2022-11-21T06:27:22.426Z,45.67
2022-11-21T06:29:50.360Z,41.63
2022-11-21T06:32:18.264Z,40.03
2022-11-21T06:34:46.069Z,42.23
2022-11-21T06:37:14.074Z,44.83
2022-11-21T06:39:43.171Z,39.80
2022-11-21T06:42:10.947Z,43.27
2022-11-21T06:44:38.682Z,46.10
2022-11-21T06:47:19.639Z,49.97
2022-11-21T06:49:47.420Z,44.70
2022-11-21T06:52:15.264Z,48.97
2022-11-21T06:54:44.652Z,51.90
2022-11-21T06:57:12.393Z,51.43
2022-11-21T06:59:40.170Z,48.60
2022-11-21T07:02:07.971Z,48.77
2022-11-21T07:04:35.615Z,47.13
2022-11-21T07:07:03.383Z,54.43
2022-11-21T07:09:45.791Z,52.50
2022-11-21T07:12:32.823Z,59.03
2022-11-21T07:15:00.652Z,58.33
2022-11-21T07:17:28.532Z,61.30
2022-11-21T07:19:56.265Z,54.53
2022-11-21T07:22:23.979Z,61.00
2022-11-21T07:24:51.669Z,62.47
2022-11-21T07:27:20.814Z,59.27
2022-11-21T07:29:48.591Z,53.87
2022-11-21T07:32:16.384Z,59.77
2022-11-21T07:34:44.093Z,53.87
2022-11-21T07:37:11.902Z,54.07
2022-11-21T07:39:39.711Z,53.70
2022-11-21T07:42:07.411Z,50.27
2022-11-21T07:44:36.753Z,47.33
2022-11-21T07:47:04.467Z,46.63
2022-11-21T07:49:32.356Z,45.17
2022-11-21T07:52:00.215Z,43.77
2022-11-21T07:54:28.028Z,48.60
2022-11-21T07:56:55.851Z,51.13
2022-11-21T07:59:23.541Z,49.63
2022-11-21T08:01:53.440Z,45.97
2022-11-21T08:04:21.223Z,44.30
2022-11-21T08:06:48.990Z,44.83
2022-11-21T08:09:16.776Z,44.13
2022-11-21T08:11:44.527Z,43.67
2022-11-21T08:14:12.311Z,34.47
2022-11-21T08:16:40.303Z,40.47
2022-11-21T08:19:09.496Z,45.40
2022-11-21T08:21:37.259Z,39.53
2022-11-21T08:24:07.662Z,34.00
2022-11-21T08:26:35.398Z,29.73
2022-11-21T08:29:03.196Z,28.50
2022-11-21T08:31:31.039Z,33.50
2022-11-21T08:33:58.976Z,26.73
2022-11-21T08:36:28.152Z,37.03
2022-11-21T08:38:55.907Z,32.50
2022-11-21T08:41:52.736Z,42.00
2022-11-21T08:44:20.478Z,31.63
2022-11-21T08:46:48.222Z,30.13
2022-11-21T08:49:16.192Z,35.87
2022-11-21T08:51:45.339Z,35.83
2022-11-21T08:54:13.366Z,31.80
2022-11-21T08:56:41.027Z,32.67
2022-11-21T08:59:08.804Z,29.13
2022-11-21T09:01:36.630Z,32.93
2022-11-21T09:04:04.520Z,29.93
2022-11-21T09:06:32.333Z,27.03
2022-11-21T09:09:01.425Z,26.10
2022-11-21T09:11:29.089Z,29.43
2022-11-21T09:14:14.539Z,29.07
2022-11-21T09:17:02.214Z,27.07
2022-11-21T09:19:30.534Z,28.07
2022-11-21T09:21:58.430Z,20.47
2022-11-21T09:24:27.582Z,22.20
2022-11-21T09:26:55.340Z,19.70
2022-11-21T09:29:23.136Z,19.73
2022-11-21T09:31:50.833Z,20.93
2022-11-21T09:34:18.556Z,19.07
2022-11-21T09:36:46.979Z,25.37
2022-11-21T09:39:14.747Z,16.87
2022-11-21T09:41:53.871Z,19.93
2022-11-21T09:44:36.069Z,15.20
2022-11-21T09:47:05.376Z,17.77
2022-11-21T09:49:33.584Z,18.97
2022-11-21T09:52:01.521Z,18.53
2022-11-21T09:54:31.572Z,20.93
2022-11-21T09:57:00.893Z,22.77
2022-11-21T09:59:33.489Z,16.43
2022-11-21T10:02:01.234Z,18.97
2022-11-21T10:04:29.376Z,20.15
2022-11-21T10:07:02.788Z,22.17
2022-11-21T10:09:37.523Z,21.33
2022-11-21T10:12:26.188Z,20.97
2022-11-21T10:14:59.987Z,18.67
2022-11-21T10:17:31.304Z,21.13
2022-11-21T10:20:19.289Z,19.57
2022-11-21T10:23:00.833Z,21.53
2022-11-21T10:25:30.703Z,19.53
2022-11-21T10:28:01.647Z,14.40
2022-11-21T10:30:29.738Z,20.17
2022-11-21T10:32:58.374Z,18.53
2022-11-21T10:35:27.014Z,18.10
2022-11-21T10:37:55.325Z,16.03
2022-11-21T10:40:29.487Z,14.70
2022-11-21T10:43:00.041Z,15.27
2022-11-21T10:45:26.805Z,18.90
2022-11-21T10:47:55.194Z,16.77
2022-11-21T10:50:44.035Z,16.23
2022-11-21T10:53:35.071Z,13.87
2022-11-21T10:56:03.938Z,12.60
2022-11-21T10:58:42.428Z,11.90
2022-11-21T11:01:20.852Z,13.70
2022-11-21T11:04:06.990Z,11.33
2022-11-21T11:06:36.501Z,11.67
2022-11-21T11:09:04.447Z,12.47
2022-11-21T11:11:32.174Z,10.37
2022-11-21T11:14:02.501Z,11.13
2022-11-21T11:16:30.492Z,12.67
2022-11-21T11:19:00.354Z,11.70
2022-11-21T11:21:29.093Z,13.10
2022-11-21T11:24:07.842Z,14.63
2022-11-21T11:26:35.558Z,15.10
2022-11-21T11:29:11.133Z,11.63
2022-11-21T11:31:43.104Z,15.80
2022-11-21T11:34:13.404Z,15.10
2022-11-21T11:36:47.166Z,13.33
2022-11-21T11:39:19.627Z,13.53
2022-11-21T11:42:17.184Z,16.10
2022-11-21T11:45:08.383Z,11.67
2022-11-21T11:47:39.305Z,16.23
2022-11-21T11:50:13.337Z,14.80
2022-11-21T11:52:51.293Z,13.97
2022-11-21T11:55:21.869Z,17.10
2022-11-21T11:57:50.789Z,13.10
2022-11-21T12:00:28.372Z,12.70
2022-11-21T12:03:02.363Z,11.87
2022-11-21T12:05:31.053Z,13.27
2022-11-21T12:08:40.183Z,11.60
2022-11-21T12:11:13.819Z,10.00
2022-11-21T12:13:41.553Z,11.67
2022-11-21T12:16:14.154Z,10.93
2022-11-21T12:18:47.880Z,13.83
2022-11-21T12:21:16.466Z,12.00
2022-11-21T12:23:49.981Z,9.83
2022-11-21T12:26:26.088Z,10.20
2022-11-21T12:29:01.384Z,13.77
2022-11-21T12:31:35.233Z,11.97
2022-11-21T12:34:05.522Z,10.00
2022-11-21T12:36:36.213Z,8.93
2022-11-21T12:39:15.162Z,9.03
2022-11-21T12:42:16.670Z,11.20
2022-11-21T12:44:53.699Z,8.60
2022-11-21T12:47:32.030Z,11.23
2022-11-21T12:50:22.626Z,10.23
2022-11-21T12:53:09.111Z,8.87
2022-11-21T12:55:38.007Z,7.73
2022-11-21T12:58:26.206Z,8.63
2022-11-21T13:01:04.401Z,6.60
2022-11-21T13:03:48.037Z,5.77
2022-11-21T13:06:17.934Z,7.17
2022-11-21T13:08:45.906Z,5.50
2022-11-21T13:11:36.264Z,7.77
2022-11-21T13:14:06.104Z,4.83
2022-11-21T13:19:39.090Z,6.57
2022-11-21T13:22:06.754Z,6.73
2022-11-21T13:24:57.317Z,5.37
2022-11-21T13:27:38.173Z,6.27
2022-11-21T13:30:25.434Z,4.63
2022-11-21T13:32:53.332Z,3.57
2022-11-21T13:36:00.434Z,5.27
2022-11-21T13:38:29.528Z,3.60
2022-11-21T13:41:15.011Z,4.10
2022-11-21T13:43:42.782Z,5.10
2022-11-21T13:46:10.586Z,4.07
2022-11-21T13:48:56.166Z,3.83
2022-11-21T13:51:53.336Z,2.93
2022-11-21T13:54:51.617Z,4.20
2022-11-21T13:57:26.863Z,3.60
2022-11-21T14:00:19.540Z,4.03
2022-11-21T14:03:07.145Z,2.73
2022-11-21T14:05:54.417Z,4.07
2022-11-21T14:08:23.100Z,4.27
2022-11-21T14:10:52.954Z,3.40
2022-11-21T14:13:27.903Z,2.87
2022-11-21T14:16:05.090Z,4.03
2022-11-21T14:18:32.922Z,3.90
2022-11-21T14:21:01.258Z,2.97
2022-11-21T14:23:29.962Z,2.70
2022-11-21T14:26:01.074Z,2.90
2022-11-21T14:28:29.712Z,3.00
2022-11-21T14:30:58.217Z,3.23
2022-11-21T14:33:29.910Z,2.93
2022-11-21T14:36:00.513Z,2.63
2022-11-21T14:38:28.615Z,4.00
2022-11-21T14:41:27.990Z,1.93
2022-11-21T14:44:18.861Z,2.10
2022-11-21T14:46:47.378Z,3.87
2022-11-21T14:49:29.300Z,3.73
2022-11-21T14:52:19.475Z,3.80
2022-11-21T14:55:13.517Z,1.90
2022-11-21T14:57:40.037Z,2.97
2022-11-21T15:00:09.887Z,3.57
2022-11-21T15:02:37.606Z,2.67
2022-11-21T15:05:06.541Z,3.13
2022-11-21T15:07:36.991Z,3.33
2022-11-21T15:12:56.929Z,3.83
2022-11-21T15:15:29.892Z,2.37
2022-11-21T15:18:24.311Z,3.87
2022-11-21T15:20:47.547Z,3.37
2022-11-21T15:23:29.327Z,4.83
2022-11-21T15:28:55.188Z,3.63
2022-11-21T15:31:26.262Z,2.33
2022-11-21T15:34:27.311Z,6.70
2022-11-21T15:36:47.090Z,2.90
2022-11-21T15:39:18.366Z,3.13
2022-11-21T15:41:49.297Z,4.77
2022-11-21T15:44:25.996Z,2.53
2022-11-21T15:46:53.908Z,2.63
2022-11-21T15:49:37.156Z,2.23
2022-11-21T15:52:10.382Z,3.97
2022-11-21T15:54:38.293Z,8.13
2022-11-21T15:57:06.098Z,2.27
2022-11-21T15:57:15.563Z,2.30
2022-11-21T15:59:35.215Z,4.63
2022-11-21T16:02:04.179Z,3.10
2022-11-21T16:04:36.273Z,4.53
2022-11-21T16:07:04.009Z,3.00
2022-11-21T16:09:31.891Z,2.90
2022-11-21T16:12:00.741Z,4.20
2022-11-21T16:14:28.384Z,3.87
2022-11-21T16:16:57.630Z,1.63
2022-11-21T16:19:26.025Z,3.57
2022-11-21T16:21:54.179Z,3.83
2022-11-21T16:24:22.058Z,2.03
2022-11-21T16:26:53.516Z,3.73
2022-11-21T16:29:21.473Z,2.47
2022-11-21T16:31:50.824Z,2.60
2022-11-21T16:34:22.961Z,3.00
2022-11-21T16:36:50.888Z,3.77
2022-11-21T16:39:18.860Z,2.67
2022-11-21T16:41:48.035Z,2.50
2022-11-21T16:44:16.689Z,3.03
2022-11-21T16:46:47.017Z,2.50
2022-11-21T16:49:15.187Z,7.13
2022-11-21T16:51:44.572Z,2.47
2022-11-21T16:54:13.134Z,21.03
2022-11-21T16:56:41.226Z,7.43
2022-11-21T16:59:09.147Z,3.57
2022-11-21T17:01:37.632Z,3.20
2022-11-21T17:04:05.831Z,3.17
2022-11-21T17:06:33.999Z,3.70
2022-11-21T17:09:03.757Z,4.47
2022-11-21T17:11:32.214Z,4.77
2022-11-21T17:14:00.959Z,5.53
2022-11-21T17:16:29.234Z,3.33
2022-11-21T17:18:57.390Z,3.53
2022-11-21T17:21:25.317Z,6.43
2022-11-21T17:23:53.083Z,5.47
2022-11-21T17:26:23.107Z,4.80
2022-11-21T17:28:54.467Z,3.57
2022-11-21T17:31:22.482Z,4.23
2022-11-21T17:33:51.841Z,3.23
2022-11-21T17:36:20.546Z,6.13
2022-11-21T17:38:48.879Z,17.17
2022-11-21T17:41:17.813Z,5.87
2022-11-21T17:43:47.410Z,11.97
2022-11-21T17:46:16.827Z,9.70
2022-11-21T17:48:54.585Z,4.37
2022-11-21T17:51:25.860Z,4.07
2022-11-21T17:53:53.938Z,7.73
2022-11-21T17:56:23.853Z,7.10
2022-11-21T17:58:53.439Z,2.60
2022-11-21T18:01:22.140Z,2.17
2022-11-21T18:03:54.327Z,2.90
2022-11-21T18:06:22.209Z,4.00
2022-11-21T18:08:50.136Z,5.77
2022-11-21T18:11:19.496Z,4.03
2022-11-21T18:13:54.863Z,4.57
2022-11-21T18:16:25.932Z,2.20
2022-11-21T18:18:53.783Z,3.10
2022-11-21T18:59:12.511Z,1.73
2022-11-21T19:01:40.955Z,2.60
2022-11-21T19:04:09.436Z,3.83
2022-11-21T19:06:37.868Z,3.47
2022-11-21T19:09:07.101Z,3.73
2022-11-21T19:11:35.554Z,2.83
2022-11-21T19:14:13.414Z,10.47
2022-11-21T19:16:42.105Z,7.97
2022-11-21T19:19:33.614Z,4.30
2022-11-21T19:22:01.306Z,3.93
2022-11-21T19:24:29.770Z,5.60
2022-11-21T19:26:58.297Z,6.67
2022-11-21T19:29:28.703Z,8.00
2022-11-21T19:31:57.325Z,6.73
2022-11-21T19:34:25.646Z,4.50
2022-11-21T19:36:54.073Z,4.67
2022-11-21T19:39:22.324Z,2.43
2022-11-21T19:41:50.273Z,2.87
2022-11-21T19:44:18.707Z,4.83
2022-11-21T19:46:51.403Z,5.17
2022-11-21T19:49:20.275Z,2.40
2022-11-21T19:51:48.485Z,3.50
2022-11-21T19:54:17.411Z,5.03
2022-11-21T19:56:45.461Z,3.23
2022-11-21T19:59:14.694Z,2.70
2022-11-21T20:01:44.866Z,4.63
2022-11-21T20:04:17.700Z,5.30
2022-11-21T20:06:46.409Z,4.93
2022-11-21T20:09:15.720Z,4.17
2022-11-21T20:11:44.670Z,4.20
2022-11-21T20:14:19.583Z,4.70
2022-11-21T20:16:50.088Z,2.53
2022-11-21T20:19:20.224Z,4.80
2022-11-21T20:21:48.237Z,2.90
2022-11-21T20:24:16.277Z,9.03
2022-11-21T20:26:44.165Z,3.80
2022-11-21T20:29:12.598Z,4.30
2022-11-21T20:31:40.570Z,6.27
2022-11-21T20:34:11.256Z,3.23
2022-11-21T20:36:40.818Z,7.37
2022-11-21T20:39:09.745Z,9.40
2022-11-21T20:41:37.857Z,8.00
2022-11-21T20:45:11.348Z,5.30
2022-11-21T20:46:56.012Z,7.83
2022-11-21T20:49:23.925Z,8.30
2022-11-21T20:54:42.126Z,3.93
2022-11-21T20:57:14.829Z,11.20
2022-11-21T20:59:43.719Z,9.77
2022-11-21T21:02:14.172Z,7.80
2022-11-21T21:04:43.496Z,6.77
2022-11-21T21:07:12.999Z,7.83
2022-11-21T21:09:40.966Z,5.97
2022-11-21T21:12:09.023Z,3.73
2022-11-21T21:14:37.151Z,6.07
2022-11-21T21:17:05.051Z,4.77
2022-11-21T21:19:33.171Z,7.23
2022-11-21T21:22:01.091Z,6.97
2022-11-21T21:24:30.305Z,9.77
2022-11-21T21:26:58.977Z,4.40
2022-11-21T21:29:27.032Z,6.63
2022-11-21T21:31:55.119Z,8.40
2022-11-21T21:34:23.315Z,6.67
2022-11-21T21:36:51.694Z,6.30
2022-11-21T21:39:19.742Z,5.00
2022-11-21T21:41:49.067Z,7.03
2022-11-21T21:44:17.232Z,9.17
2022-11-21T21:46:45.128Z,4.60
2022-11-21T21:49:13.437Z,8.50
2022-11-21T21:51:41.339Z,8.17
2022-11-21T21:54:16.302Z,6.93
2022-11-21T21:56:44.266Z,9.13
2022-11-21T21:59:13.603Z,11.03
2022-11-21T22:01:42.632Z,3.97
2022-11-21T22:04:11.564Z,7.23
2022-11-21T22:06:39.642Z,4.87
2022-11-21T22:09:08.177Z,3.50
2022-11-21T22:11:37.749Z,6.83
2022-11-21T22:14:09.763Z,7.60
2022-11-21T22:16:39.567Z,4.10
2022-11-21T22:19:07.593Z,4.57
2022-11-21T22:21:36.646Z,3.40
2022-11-21T22:26:55.132Z,4.00
2022-11-21T22:29:23.259Z,3.43
2022-11-21T22:31:52.616Z,5.53
2022-11-21T22:34:20.396Z,4.33
2022-11-21T22:36:48.416Z,3.70
2022-11-21T22:39:17.323Z,2.63
2022-11-21T22:41:45.113Z,3.27
2022-11-21T22:44:13.503Z,4.17
2022-11-21T22:46:41.239Z,4.07
2022-11-21T22:49:10.351Z,2.57
2022-11-21T22:51:38.163Z,4.63
2022-11-21T22:54:07.120Z,2.03
2022-11-21T22:56:34.853Z,6.97
2022-11-21T22:59:02.674Z,5.13
2022-11-21T23:01:30.492Z,3.07
2022-11-21T23:03:58.676Z,3.23
2022-11-21T23:06:28.239Z,4.20
2022-11-21T23:08:56.652Z,2.70
2022-11-21T23:11:26.077Z,3.30
2022-11-21T23:13:54.067Z,2.57
2022-11-21T23:16:22.321Z,2.07
2022-11-21T23:18:50.296Z,3.77
2022-11-21T23:21:18.171Z,2.07
2022-11-21T23:23:47.302Z,1.47
2022-11-21T23:26:15.085Z,2.67
2022-11-21T23:28:42.787Z,2.20
2022-11-21T23:31:10.829Z,3.23
2022-11-21T23:33:38.564Z,2.10
2022-11-21T23:36:06.535Z,3.00
2022-11-21T23:38:34.257Z,2.63
2022-11-21T23:41:03.299Z,4.57
2022-11-21T23:43:31.082Z,4.17
2022-11-21T23:45:58.824Z,4.63
2022-11-21T23:48:26.560Z,2.07
2022-11-21T23:50:54.356Z,3.33
2022-11-21T23:53:22.315Z,4.40
2022-11-21T23:55:50.557Z,2.67
2022-11-21T23:58:19.799Z,3.03
